sensor_id;sensor_type;location;lat;lon;timestamp;pressure;altitude;pressure_sealevel;temperature;humidity
4326;BME280;58429;49.826;10.880;2023-03-14T00:00:23;96779;;;9.97;84.17
4326;BME280;58429;49.826;10.880;2023-03-14T00:01:23;96781;;;9.97;84.24
4326;BME280;58429;49.826;10.880;2023-03-14T00:02:23;96793;;;10;84.3
4326;BME280;58429;49.826;10.880;2023-03-14T00:03:22;96794;;;9.95;84.33
4326;BME280;58429;49.826;10.880;2023-03-14T00:04:22;96802;;;9.95;84.27
4326;BME280;58429;49.826;10.880;2023-03-14T00:05:22;96804;;;9.97;84.36
4326;BME280;58429;49.826;10.880;2023-03-14T00:06:22;96805;;;9.91;84.2
4326;BME280;58429;49.826;10.880;2023-03-14T00:07:22;96808;;;9.95;84.14
4326;BME280;58429;49.826;10.880;2023-03-14T00:08:22;96820;;;9.93;84.21
4326;BME280;58429;49.826;10.880;2023-03-14T00:09:22;96822;;;9.94;84.17
4326;BME280;58429;49.826;10.880;2023-03-14T00:10:22;96828;;;9.92;84.29
4326;BME280;58429;49.826;10.880;2023-03-14T00:11:22;96828;;;9.95;84.26
4326;BME280;58429;49.826;10.880;2023-03-14T00:12:22;96832;;;9.89;84.31
4326;BME280;58429;49.826;10.880;2023-03-14T00:13:22;96832;;;9.9;84.29
4326;BME280;58429;49.826;10.880;2023-03-14T00:14:22;96843;;;9.91;84.33
4326;BME280;58429;49.826;10.880;2023-03-14T00:15:23;96839;;;9.93;84.3
4326;BME280;58429;49.826;10.880;2023-03-14T00:16:22;96841;;;9.91;84.4
4326;BME280;58429;49.826;10.880;2023-03-14T00:17:23;96837;;;9.87;84.51
4326;BME280;58429;49.826;10.880;2023-03-14T00:18:22;96831;;;9.88;84.46
4326;BME280;58429;49.826;10.880;2023-03-14T00:19:22;96832;;;9.85;84.55
4326;BME280;58429;49.826;10.880;2023-03-14T00:20:22;96841;;;9.85;84.64
4326;BME280;58429;49.826;10.880;2023-03-14T00:21:23;96843;;;9.83;84.64
4326;BME280;58429;49.826;10.880;2023-03-14T00:22:22;96848;;;9.84;84.7
4326;BME280;58429;49.826;10.880;2023-03-14T00:23:22;96852;;;9.86;84.73
4326;BME280;58429;49.826;10.880;2023-03-14T00:24:22;96856;;;9.81;84.68
4326;BME280;58429;49.826;10.880;2023-03-14T00:25:23;96858;;;9.82;84.77
4326;BME280;58429;49.826;10.880;2023-03-14T00:26:23;96854;;;9.81;84.84
4326;BME280;58429;49.826;10.880;2023-03-14T00:27:22;96850;;;9.81;84.86
4326;BME280;58429;49.826;10.880;2023-03-14T00:28:22;96861;;;9.83;84.75
4326;BME280;58429;49.826;10.880;2023-03-14T00:29:23;96850;;;9.81;84.81
4326;BME280;58429;49.826;10.880;2023-03-14T00:30:22;96860;;;9.83;84.83
4326;BME280;58429;49.826;10.880;2023-03-14T00:31:22;96862;;;9.78;84.77
4326;BME280;58429;49.826;10.880;2023-03-14T00:32:22;96864;;;9.8;84.9
4326;BME280;58429;49.826;10.880;2023-03-14T00:33:23;96864;;;9.78;84.88
4326;BME280;58429;49.826;10.880;2023-03-14T00:34:23;96867;;;9.78;84.96
4326;BME280;58429;49.826;10.880;2023-03-14T00:35:22;96864;;;9.81;84.95
4326;BME280;58429;49.826;10.880;2023-03-14T00:36:23;96869;;;9.78;84.98
4326;BME280;58429;49.826;10.880;2023-03-14T00:37:23;96870;;;9.79;84.89
4326;BME280;58429;49.826;10.880;2023-03-14T00:38:22;96869;;;9.75;85.14
4326;BME280;58429;49.826;10.880;2023-03-14T00:39:23;96879;;;9.77;85.17
4326;BME280;58429;49.826;10.880;2023-03-14T00:40:23;96876;;;9.76;85.22
4326;BME280;58429;49.826;10.880;2023-03-14T00:41:23;96877;;;9.76;85.17
4326;BME280;58429;49.826;10.880;2023-03-14T00:42:23;96872;;;9.73;85.18
4326;BME280;58429;49.826;10.880;2023-03-14T00:43:23;96877;;;9.76;85.22
4326;BME280;58429;49.826;10.880;2023-03-14T00:44:23;96883;;;9.75;85.1
4326;BME280;58429;49.826;10.880;2023-03-14T00:45:23;96875;;;9.75;85.13
4326;BME280;58429;49.826;10.880;2023-03-14T00:46:23;96875;;;9.72;85.17
4326;BME280;58429;49.826;10.880;2023-03-14T00:47:23;96876;;;9.74;85.2
4326;BME280;58429;49.826;10.880;2023-03-14T00:48:22;96876;;;9.74;85.26
4326;BME280;58429;49.826;10.880;2023-03-14T00:49:23;96878;;;9.72;85.26
4326;BME280;58429;49.826;10.880;2023-03-14T00:50:22;96879;;;9.7;85.28
4326;BME280;58429;49.826;10.880;2023-03-14T00:51:23;96877;;;9.72;85.27
4326;BME280;58429;49.826;10.880;2023-03-14T00:52:22;96872;;;9.73;85.13
4326;BME280;58429;49.826;10.880;2023-03-14T00:53:23;96871;;;9.74;85.1
4326;BME280;58429;49.826;10.880;2023-03-14T00:54:23;96872;;;9.74;85.03
4326;BME280;58429;49.826;10.880;2023-03-14T00:55:23;96872;;;9.75;85.05
4326;BME280;58429;49.826;10.880;2023-03-14T00:56:23;96866;;;9.75;85.04
4326;BME280;58429;49.826;10.880;2023-03-14T00:57:23;96867;;;9.75;84.96
4326;BME280;58429;49.826;10.880;2023-03-14T00:58:23;96868;;;9.79;84.99
4326;BME280;58429;49.826;10.880;2023-03-14T00:59:23;96867;;;9.75;84.85
4326;BME280;58429;49.826;10.880;2023-03-14T01:00:23;96862;;;9.79;84.8
4326;BME280;58429;49.826;10.880;2023-03-14T01:01:23;96869;;;9.78;84.82
4326;BME280;58429;49.826;10.880;2023-03-14T01:02:23;96868;;;9.76;84.73
4326;BME280;58429;49.826;10.880;2023-03-14T01:03:23;96873;;;9.81;84.73
4326;BME280;58429;49.826;10.880;2023-03-14T01:04:23;96877;;;9.79;84.79
4326;BME280;58429;49.826;10.880;2023-03-14T01:05:23;96884;;;9.82;84.75
4326;BME280;58429;49.826;10.880;2023-03-14T01:06:23;96882;;;9.8;84.71
4326;BME280;58429;49.826;10.880;2023-03-14T01:07:23;96875;;;9.78;84.69
4326;BME280;58429;49.826;10.880;2023-03-14T01:08:23;96887;;;9.83;84.64
4326;BME280;58429;49.826;10.880;2023-03-14T01:09:23;96879;;;9.79;84.55
4326;BME280;58429;49.826;10.880;2023-03-14T01:10:23;96882;;;9.81;84.58
4326;BME280;58429;49.826;10.880;2023-03-14T01:11:24;96880;;;9.81;84.52
4326;BME280;58429;49.826;10.880;2023-03-14T01:12:23;96882;;;9.83;84.41
4326;BME280;58429;49.826;10.880;2023-03-14T01:13:23;96886;;;9.83;84.33
4326;BME280;58429;49.826;10.880;2023-03-14T01:14:23;96879;;;9.85;84.26
4326;BME280;58429;49.826;10.880;2023-03-14T01:15:23;96876;;;9.86;84.25
4326;BME280;58429;49.826;10.880;2023-03-14T01:16:24;96878;;;9.86;84.19
4326;BME280;58429;49.826;10.880;2023-03-14T01:17:23;96871;;;9.86;84.2
4326;BME280;58429;49.826;10.880;2023-03-14T01:18:23;96877;;;9.89;84.21
4326;BME280;58429;49.826;10.880;2023-03-14T01:19:23;96878;;;9.85;84.19
4326;BME280;58429;49.826;10.880;2023-03-14T01:20:23;96879;;;9.88;84.23
4326;BME280;58429;49.826;10.880;2023-03-14T01:21:24;96877;;;9.9;84.17
4326;BME280;58429;49.826;10.880;2023-03-14T01:22:23;96881;;;9.89;84.11
4326;BME280;58429;49.826;10.880;2023-03-14T01:23:23;96887;;;9.9;84.04
4326;BME280;58429;49.826;10.880;2023-03-14T01:24:23;96879;;;9.88;83.99
4326;BME280;58429;49.826;10.880;2023-03-14T01:25:23;96882;;;9.89;83.89
4326;BME280;58429;49.826;10.880;2023-03-14T01:26:23;96883;;;9.89;83.82
4326;BME280;58429;49.826;10.880;2023-03-14T01:27:23;96883;;;9.91;83.79
4326;BME280;58429;49.826;10.880;2023-03-14T01:28:23;96879;;;9.94;83.79
4326;BME280;58429;49.826;10.880;2023-03-14T01:29:23;96879;;;9.97;83.77
4326;BME280;58429;49.826;10.880;2023-03-14T01:30:23;96874;;;9.96;83.76
4326;BME280;58429;49.826;10.880;2023-03-14T01:31:23;96879;;;9.91;83.75
4326;BME280;58429;49.826;10.880;2023-03-14T01:32:23;96878;;;9.92;83.74
4326;BME280;58429;49.826;10.880;2023-03-14T01:33:23;96868;;;9.93;83.76
4326;BME280;58429;49.826;10.880;2023-03-14T01:34:23;96865;;;9.91;83.67
4326;BME280;58429;49.826;10.880;2023-03-14T01:35:23;96866;;;9.9;83.69
4326;BME280;58429;49.826;10.880;2023-03-14T01:36:23;96866;;;9.92;83.68
4326;BME280;58429;49.826;10.880;2023-03-14T01:37:23;96870;;;9.91;83.7
4326;BME280;58429;49.826;10.880;2023-03-14T01:38:23;96862;;;9.9;83.52
4326;BME280;58429;49.826;10.880;2023-03-14T01:39:23;96859;;;9.9;83.48
4326;BME280;58429;49.826;10.880;2023-03-14T01:40:23;96853;;;9.91;83.3
4326;BME280;58429;49.826;10.880;2023-03-14T01:41:23;96854;;;9.92;83.34
4326;BME280;58429;49.826;10.880;2023-03-14T01:42:23;96860;;;9.91;83.31
4326;BME280;58429;49.826;10.880;2023-03-14T01:43:23;96856;;;9.91;83.35
4326;BME280;58429;49.826;10.880;2023-03-14T01:44:23;96854;;;9.89;83.35
4326;BME280;58429;49.826;10.880;2023-03-14T01:46:26;96851;;;9.9;83.23
4326;BME280;58429;49.826;10.880;2023-03-14T01:46:28;96847;;;9.9;83.28
4326;BME280;58429;49.826;10.880;2023-03-14T01:47:23;96845;;;9.93;83.27
4326;BME280;58429;49.826;10.880;2023-03-14T01:48:23;96847;;;9.91;83.34
4326;BME280;58429;49.826;10.880;2023-03-14T01:49:24;96841;;;9.91;83.19
4326;BME280;58429;49.826;10.880;2023-03-14T01:50:23;96844;;;9.91;83.16
4326;BME280;58429;49.826;10.880;2023-03-14T01:51:24;96847;;;9.92;83.04
4326;BME280;58429;49.826;10.880;2023-03-14T01:52:24;96837;;;9.94;83.16
4326;BME280;58429;49.826;10.880;2023-03-14T01:53:23;96844;;;9.97;83.13
4326;BME280;58429;49.826;10.880;2023-03-14T01:54:24;96834;;;9.91;83.14
4326;BME280;58429;49.826;10.880;2023-03-14T01:55:23;96836;;;9.91;83.18
4326;BME280;58429;49.826;10.880;2023-03-14T01:56:23;96839;;;9.87;83.1
4326;BME280;58429;49.826;10.880;2023-03-14T01:57:24;96842;;;9.9;83.15
4326;BME280;58429;49.826;10.880;2023-03-14T01:58:23;96840;;;9.91;83.04
4326;BME280;58429;49.826;10.880;2023-03-14T01:59:23;96836;;;9.9;83.09
4326;BME280;58429;49.826;10.880;2023-03-14T02:00:23;96837;;;9.89;83.11
4326;BME280;58429;49.826;10.880;2023-03-14T02:01:23;96834;;;9.89;83.1
4326;BME280;58429;49.826;10.880;2023-03-14T02:02:23;96836;;;9.88;82.92
4326;BME280;58429;49.826;10.880;2023-03-14T02:03:23;96831;;;9.91;82.88
4326;BME280;58429;49.826;10.880;2023-03-14T02:04:23;96828;;;9.9;82.96
4326;BME280;58429;49.826;10.880;2023-03-14T02:05:23;96832;;;9.9;82.87
4326;BME280;58429;49.826;10.880;2023-03-14T02:06:24;96827;;;9.93;82.87
4326;BME280;58429;49.826;10.880;2023-03-14T02:07:24;96825;;;9.88;82.97
4326;BME280;58429;49.826;10.880;2023-03-14T02:08:23;96824;;;9.91;82.98
4326;BME280;58429;49.826;10.880;2023-03-14T02:09:23;96825;;;9.86;82.97
4326;BME280;58429;49.826;10.880;2023-03-14T02:10:23;96830;;;9.86;82.95
4326;BME280;58429;49.826;10.880;2023-03-14T02:11:24;96831;;;9.87;82.87
4326;BME280;58429;49.826;10.880;2023-03-14T02:12:23;96823;;;9.87;82.96
4326;BME280;58429;49.826;10.880;2023-03-14T02:13:23;96821;;;9.87;83
4326;BME280;58429;49.826;10.880;2023-03-14T02:14:26;96820;;;9.86;83.02
4326;BME280;58429;49.826;10.880;2023-03-14T02:15:23;96816;;;9.85;83.05
4326;BME280;58429;49.826;10.880;2023-03-14T02:16:23;96816;;;9.89;83.03
4326;BME280;58429;49.826;10.880;2023-03-14T02:17:23;96814;;;9.86;83.12
4326;BME280;58429;49.826;10.880;2023-03-14T02:18:23;96815;;;9.86;82.97
4326;BME280;58429;49.826;10.880;2023-03-14T02:19:26;96814;;;9.84;82.97
4326;BME280;58429;49.826;10.880;2023-03-14T02:20:26;96821;;;9.87;83.06
4326;BME280;58429;49.826;10.880;2023-03-14T02:21:23;96821;;;9.83;82.94
4326;BME280;58429;49.826;10.880;2023-03-14T02:22:23;96819;;;9.85;83.03
4326;BME280;58429;49.826;10.880;2023-03-14T02:23:24;96811;;;9.83;83.04
4326;BME280;58429;49.826;10.880;2023-03-14T02:24:24;96809;;;9.8;83.11
4326;BME280;58429;49.826;10.880;2023-03-14T02:25:24;96804;;;9.81;82.98
4326;BME280;58429;49.826;10.880;2023-03-14T02:26:24;96800;;;9.83;82.95
4326;BME280;58429;49.826;10.880;2023-03-14T02:27:23;96793;;;9.82;82.99
4326;BME280;58429;49.826;10.880;2023-03-14T02:28:23;96794;;;9.84;82.85
4326;BME280;58429;49.826;10.880;2023-03-14T02:29:23;96789;;;9.81;82.82
4326;BME280;58429;49.826;10.880;2023-03-14T02:30:24;96783;;;9.85;82.64
4326;BME280;58429;49.826;10.880;2023-03-14T02:31:23;96770;;;9.85;82.58
4326;BME280;58429;49.826;10.880;2023-03-14T02:32:23;96770;;;9.86;82.56
4326;BME280;58429;49.826;10.880;2023-03-14T02:33:23;96770;;;9.86;82.51
4326;BME280;58429;49.826;10.880;2023-03-14T02:34:23;96771;;;9.88;82.49
4326;BME280;58429;49.826;10.880;2023-03-14T02:35:24;96766;;;9.87;82.52
4326;BME280;58429;49.826;10.880;2023-03-14T02:36:23;96771;;;9.85;82.53
4326;BME280;58429;49.826;10.880;2023-03-14T02:37:24;96762;;;9.87;82.52
4326;BME280;58429;49.826;10.880;2023-03-14T02:38:24;96761;;;9.85;82.55
4326;BME280;58429;49.826;10.880;2023-03-14T02:39:24;96755;;;9.84;82.54
4326;BME280;58429;49.826;10.880;2023-03-14T02:40:23;96758;;;9.85;82.63
4326;BME280;58429;49.826;10.880;2023-03-14T02:41:23;96758;;;9.84;82.62
4326;BME280;58429;49.826;10.880;2023-03-14T02:42:23;96758;;;9.83;82.65
4326;BME280;58429;49.826;10.880;2023-03-14T02:43:23;96758;;;9.81;82.7
4326;BME280;58429;49.826;10.880;2023-03-14T02:44:23;96758;;;9.82;82.7
4326;BME280;58429;49.826;10.880;2023-03-14T02:45:40;96748;;;9.82;82.74
4326;BME280;58429;49.826;10.880;2023-03-14T02:46:23;96752;;;9.81;82.73
4326;BME280;58429;49.826;10.880;2023-03-14T02:47:26;96754;;;9.81;82.79
4326;BME280;58429;49.826;10.880;2023-03-14T02:48:24;96754;;;9.81;82.83
4326;BME280;58429;49.826;10.880;2023-03-14T02:49:23;96749;;;9.78;82.8
4326;BME280;58429;49.826;10.880;2023-03-14T02:50:24;96741;;;9.79;82.82
4326;BME280;58429;49.826;10.880;2023-03-14T02:51:23;96750;;;9.79;82.8
4326;BME280;58429;49.826;10.880;2023-03-14T02:52:23;96746;;;9.77;82.8
4326;BME280;58429;49.826;10.880;2023-03-14T02:53:24;96756;;;9.75;82.79
4326;BME280;58429;49.826;10.880;2023-03-14T02:54:23;96747;;;9.75;82.9
4326;BME280;58429;49.826;10.880;2023-03-14T02:55:23;96752;;;9.77;82.89
4326;BME280;58429;49.826;10.880;2023-03-14T02:56:23;96752;;;9.74;82.91
4326;BME280;58429;49.826;10.880;2023-03-14T02:57:23;96743;;;9.72;82.85
4326;BME280;58429;49.826;10.880;2023-03-14T02:58:23;96752;;;9.74;82.91
4326;BME280;58429;49.826;10.880;2023-03-14T02:59:23;96745;;;9.74;82.96
4326;BME280;58429;49.826;10.880;2023-03-14T03:00:23;96741;;;9.71;82.96
4326;BME280;58429;49.826;10.880;2023-03-14T03:01:23;96745;;;9.72;83.02
4326;BME280;58429;49.826;10.880;2023-03-14T03:02:23;96747;;;9.71;83.08
4326;BME280;58429;49.826;10.880;2023-03-14T03:03:23;96757;;;9.7;82.92
4326;BME280;58429;49.826;10.880;2023-03-14T03:04:23;96752;;;9.69;82.92
4326;BME280;58429;49.826;10.880;2023-03-14T03:05:23;96748;;;9.69;83.08
4326;BME280;58429;49.826;10.880;2023-03-14T03:06:23;96754;;;9.7;83.17
4326;BME280;58429;49.826;10.880;2023-03-14T03:07:23;96754;;;9.71;83.12
4326;BME280;58429;49.826;10.880;2023-03-14T03:08:23;96755;;;9.69;83.07
4326;BME280;58429;49.826;10.880;2023-03-14T03:09:23;96762;;;9.72;83.13
4326;BME280;58429;49.826;10.880;2023-03-14T03:10:23;96760;;;9.71;83.14
4326;BME280;58429;49.826;10.880;2023-03-14T03:11:23;96763;;;9.71;83.12
4326;BME280;58429;49.826;10.880;2023-03-14T03:12:23;96762;;;9.73;83.19
4326;BME280;58429;49.826;10.880;2023-03-14T03:13:23;96758;;;9.68;83.18
4326;BME280;58429;49.826;10.880;2023-03-14T03:14:23;96763;;;9.69;83.16
4326;BME280;58429;49.826;10.880;2023-03-14T03:15:23;96751;;;9.7;83.23
4326;BME280;58429;49.826;10.880;2023-03-14T03:16:23;96759;;;9.69;83.25
4326;BME280;58429;49.826;10.880;2023-03-14T03:17:23;96756;;;9.65;83.27
4326;BME280;58429;49.826;10.880;2023-03-14T03:18:23;96756;;;9.64;83.32
4326;BME280;58429;49.826;10.880;2023-03-14T03:19:23;96745;;;9.66;83.35
4326;BME280;58429;49.826;10.880;2023-03-14T03:20:23;96753;;;9.62;83.23
4326;BME280;58429;49.826;10.880;2023-03-14T03:21:23;96757;;;9.63;83.29
4326;BME280;58429;49.826;10.880;2023-03-14T03:22:23;96755;;;9.64;83.32
4326;BME280;58429;49.826;10.880;2023-03-14T03:23:23;96753;;;9.63;83.35
4326;BME280;58429;49.826;10.880;2023-03-14T03:24:23;96760;;;9.65;83.43
4326;BME280;58429;49.826;10.880;2023-03-14T03:25:23;96755;;;9.65;83.4
4326;BME280;58429;49.826;10.880;2023-03-14T03:26:23;96752;;;9.64;83.41
4326;BME280;58429;49.826;10.880;2023-03-14T03:27:23;96743;;;9.65;83.43
4326;BME280;58429;49.826;10.880;2023-03-14T03:28:23;96745;;;9.62;83.43
4326;BME280;58429;49.826;10.880;2023-03-14T03:29:23;96745;;;9.64;83.39
4326;BME280;58429;49.826;10.880;2023-03-14T03:30:23;96737;;;9.62;83.46
4326;BME280;58429;49.826;10.880;2023-03-14T03:31:23;96727;;;9.63;83.45
4326;BME280;58429;49.826;10.880;2023-03-14T03:32:23;96716;;;9.62;83.48
4326;BME280;58429;49.826;10.880;2023-03-14T03:33:23;96714;;;9.61;83.51
4326;BME280;58429;49.826;10.880;2023-03-14T03:34:23;96710;;;9.61;83.51
4326;BME280;58429;49.826;10.880;2023-03-14T03:35:23;96712;;;9.59;83.5
4326;BME280;58429;49.826;10.880;2023-03-14T03:36:23;96718;;;9.6;83.48
4326;BME280;58429;49.826;10.880;2023-03-14T03:37:23;96718;;;9.58;83.61
4326;BME280;58429;49.826;10.880;2023-03-14T03:38:23;96715;;;9.53;83.61
4326;BME280;58429;49.826;10.880;2023-03-14T03:39:23;96703;;;9.54;83.62
4326;BME280;58429;49.826;10.880;2023-03-14T03:40:23;96711;;;9.51;83.62
4326;BME280;58429;49.826;10.880;2023-03-14T03:41:23;96712;;;9.5;83.69
4326;BME280;58429;49.826;10.880;2023-03-14T03:42:23;96718;;;9.5;83.79
4326;BME280;58429;49.826;10.880;2023-03-14T03:43:23;96718;;;9.5;83.76
4326;BME280;58429;49.826;10.880;2023-03-14T03:44:23;96717;;;9.46;83.72
4326;BME280;58429;49.826;10.880;2023-03-14T03:45:23;96720;;;9.46;83.79
4326;BME280;58429;49.826;10.880;2023-03-14T03:46:23;96732;;;9.46;83.81
4326;BME280;58429;49.826;10.880;2023-03-14T03:47:23;96730;;;9.42;83.84
4326;BME280;58429;49.826;10.880;2023-03-14T03:48:23;96738;;;9.41;83.84
4326;BME280;58429;49.826;10.880;2023-03-14T03:49:23;96736;;;9.42;83.9
4326;BME280;58429;49.826;10.880;2023-03-14T03:50:23;96733;;;9.38;83.94
4326;BME280;58429;49.826;10.880;2023-03-14T03:51:23;96735;;;9.37;84.04
4326;BME280;58429;49.826;10.880;2023-03-14T03:52:23;96726;;;9.38;84.09
4326;BME280;58429;49.826;10.880;2023-03-14T03:53:23;96728;;;9.38;84.04
4326;BME280;58429;49.826;10.880;2023-03-14T03:54:23;96719;;;9.37;84.08
4326;BME280;58429;49.826;10.880;2023-03-14T03:55:23;96720;;;9.35;84.11
4326;BME280;58429;49.826;10.880;2023-03-14T03:56:23;96735;;;9.36;84.18
4326;BME280;58429;49.826;10.880;2023-03-14T03:57:23;96744;;;9.34;84.22
4326;BME280;58429;49.826;10.880;2023-03-14T03:58:23;96743;;;9.33;84.38
4326;BME280;58429;49.826;10.880;2023-03-14T03:59:23;96742;;;9.3;84.41
4326;BME280;58429;49.826;10.880;2023-03-14T04:00:23;96737;;;9.31;84.48
4326;BME280;58429;49.826;10.880;2023-03-14T04:01:23;96729;;;9.29;84.58
4326;BME280;58429;49.826;10.880;2023-03-14T04:02:23;96730;;;9.27;84.65
4326;BME280;58429;49.826;10.880;2023-03-14T04:03:23;96733;;;9.25;84.74
4326;BME280;58429;49.826;10.880;2023-03-14T04:04:23;96727;;;9.24;84.73
4326;BME280;58429;49.826;10.880;2023-03-14T04:05:23;96731;;;9.2;84.77
4326;BME280;58429;49.826;10.880;2023-03-14T04:06:23;96727;;;9.2;84.73
4326;BME280;58429;49.826;10.880;2023-03-14T04:07:23;96723;;;9.21;84.8
4326;BME280;58429;49.826;10.880;2023-03-14T04:08:23;96722;;;9.17;84.82
4326;BME280;58429;49.826;10.880;2023-03-14T04:09:23;96726;;;9.16;84.88
4326;BME280;58429;49.826;10.880;2023-03-14T04:10:23;96731;;;9.15;84.92
4326;BME280;58429;49.826;10.880;2023-03-14T04:11:23;96731;;;9.13;84.94
4326;BME280;58429;49.826;10.880;2023-03-14T04:12:23;96728;;;9.11;84.97
4326;BME280;58429;49.826;10.880;2023-03-14T04:13:23;96720;;;9.1;84.96
4326;BME280;58429;49.826;10.880;2023-03-14T04:14:23;96717;;;9.11;84.91
4326;BME280;58429;49.826;10.880;2023-03-14T04:15:23;96715;;;9.12;84.91
4326;BME280;58429;49.826;10.880;2023-03-14T04:16:24;96722;;;9.1;85.02
4326;BME280;58429;49.826;10.880;2023-03-14T04:17:23;96712;;;9.08;84.98
4326;BME280;58429;49.826;10.880;2023-03-14T04:18:23;96715;;;9.09;84.9
4326;BME280;58429;49.826;10.880;2023-03-14T04:19:24;96705;;;9.08;84.91
4326;BME280;58429;49.826;10.880;2023-03-14T04:20:23;96698;;;9.1;84.91
4326;BME280;58429;49.826;10.880;2023-03-14T04:21:23;96710;;;9.1;84.84
4326;BME280;58429;49.826;10.880;2023-03-14T04:22:23;96704;;;9.08;84.91
4326;BME280;58429;49.826;10.880;2023-03-14T04:23:23;96695;;;9.1;84.85
4326;BME280;58429;49.826;10.880;2023-03-14T04:24:23;96697;;;9.09;84.83
4326;BME280;58429;49.826;10.880;2023-03-14T04:25:23;96690;;;9.06;84.77
4326;BME280;58429;49.826;10.880;2023-03-14T04:26:23;96698;;;9.11;84.76
4326;BME280;58429;49.826;10.880;2023-03-14T04:27:23;96697;;;9.12;84.79
4326;BME280;58429;49.826;10.880;2023-03-14T04:28:23;96689;;;9.1;84.84
4326;BME280;58429;49.826;10.880;2023-03-14T04:29:23;96692;;;9.1;84.72
4326;BME280;58429;49.826;10.880;2023-03-14T04:30:23;96687;;;9.09;84.73
4326;BME280;58429;49.826;10.880;2023-03-14T04:31:23;96684;;;9.08;84.76
4326;BME280;58429;49.826;10.880;2023-03-14T04:32:23;96680;;;9.09;84.65
4326;BME280;58429;49.826;10.880;2023-03-14T04:33:23;96680;;;9.09;84.77
4326;BME280;58429;49.826;10.880;2023-03-14T04:34:23;96678;;;9.08;84.87
4326;BME280;58429;49.826;10.880;2023-03-14T04:35:23;96674;;;9.08;84.9
4326;BME280;58429;49.826;10.880;2023-03-14T04:36:23;96672;;;9.03;84.93
4326;BME280;58429;49.826;10.880;2023-03-14T04:37:23;96667;;;9.03;84.96
4326;BME280;58429;49.826;10.880;2023-03-14T04:38:23;96667;;;9.08;85.06
4326;BME280;58429;49.826;10.880;2023-03-14T04:39:23;96670;;;9.05;85.07
4326;BME280;58429;49.826;10.880;2023-03-14T04:40:23;96671;;;9.04;85.09
4326;BME280;58429;49.826;10.880;2023-03-14T04:41:23;96670;;;9.05;85.02
4326;BME280;58429;49.826;10.880;2023-03-14T04:42:23;96676;;;9.02;85.07
4326;BME280;58429;49.826;10.880;2023-03-14T04:43:23;96678;;;9.04;85.13
4326;BME280;58429;49.826;10.880;2023-03-14T04:44:23;96673;;;9.02;85.11
4326;BME280;58429;49.826;10.880;2023-03-14T04:45:23;96677;;;9.01;85.09
4326;BME280;58429;49.826;10.880;2023-03-14T04:46:23;96671;;;9.03;85.1
4326;BME280;58429;49.826;10.880;2023-03-14T04:47:23;96676;;;9.04;85.06
4326;BME280;58429;49.826;10.880;2023-03-14T04:48:24;96676;;;9.03;85.07
4326;BME280;58429;49.826;10.880;2023-03-14T04:49:23;96673;;;9.03;85.05
4326;BME280;58429;49.826;10.880;2023-03-14T04:50:23;96687;;;9;85.09
4326;BME280;58429;49.826;10.880;2023-03-14T04:51:23;96682;;;9.06;85.07
4326;BME280;58429;49.826;10.880;2023-03-14T04:52:23;96676;;;9.03;85.09
4326;BME280;58429;49.826;10.880;2023-03-14T04:53:23;96675;;;9.04;85.09
4326;BME280;58429;49.826;10.880;2023-03-14T04:54:23;96675;;;9.05;85.06
4326;BME280;58429;49.826;10.880;2023-03-14T04:55:23;96683;;;9.04;85.03
4326;BME280;58429;49.826;10.880;2023-03-14T04:56:23;96682;;;9.06;85.1
4326;BME280;58429;49.826;10.880;2023-03-14T04:57:23;96679;;;9.05;85.07
4326;BME280;58429;49.826;10.880;2023-03-14T04:58:23;96672;;;9.02;84.99
4326;BME280;58429;49.826;10.880;2023-03-14T04:59:23;96677;;;9.06;85.05
4326;BME280;58429;49.826;10.880;2023-03-14T05:00:23;96682;;;9.02;85
4326;BME280;58429;49.826;10.880;2023-03-14T05:01:23;96679;;;9.03;85.07
4326;BME280;58429;49.826;10.880;2023-03-14T05:02:23;96689;;;9.01;85.06
4326;BME280;58429;49.826;10.880;2023-03-14T05:03:23;96685;;;9.02;85.04
4326;BME280;58429;49.826;10.880;2023-03-14T05:04:23;96677;;;9.03;85.11
4326;BME280;58429;49.826;10.880;2023-03-14T05:05:23;96678;;;9.03;85.04
4326;BME280;58429;49.826;10.880;2023-03-14T05:06:23;96678;;;8.97;85.07
4326;BME280;58429;49.826;10.880;2023-03-14T05:07:24;96682;;;8.96;85.05
4326;BME280;58429;49.826;10.880;2023-03-14T05:08:23;96677;;;8.98;85.18
4326;BME280;58429;49.826;10.880;2023-03-14T05:09:23;96681;;;8.97;85.11
4326;BME280;58429;49.826;10.880;2023-03-14T05:10:23;96682;;;9;85.17
4326;BME280;58429;49.826;10.880;2023-03-14T05:11:23;96679;;;8.96;85.22
4326;BME280;58429;49.826;10.880;2023-03-14T05:12:23;96674;;;8.99;85.18
4326;BME280;58429;49.826;10.880;2023-03-14T05:13:23;96679;;;8.94;85.19
4326;BME280;58429;49.826;10.880;2023-03-14T05:14:23;96680;;;8.96;85.26
4326;BME280;58429;49.826;10.880;2023-03-14T05:15:23;96676;;;8.99;85.27
4326;BME280;58429;49.826;10.880;2023-03-14T05:16:23;96674;;;8.98;85.26
4326;BME280;58429;49.826;10.880;2023-03-14T05:17:23;96669;;;8.97;85.27
4326;BME280;58429;49.826;10.880;2023-03-14T05:18:23;96672;;;8.99;85.23
4326;BME280;58429;49.826;10.880;2023-03-14T05:19:23;96666;;;9.02;85.18
4326;BME280;58429;49.826;10.880;2023-03-14T05:20:24;96673;;;9;85.1
4326;BME280;58429;49.826;10.880;2023-03-14T05:21:23;96671;;;8.97;85.1
4326;BME280;58429;49.826;10.880;2023-03-14T05:22:23;96672;;;8.99;85.08
4326;BME280;58429;49.826;10.880;2023-03-14T05:23:23;96677;;;9;84.99
4326;BME280;58429;49.826;10.880;2023-03-14T05:24:23;96677;;;9.01;85.07
4326;BME280;58429;49.826;10.880;2023-03-14T05:25:23;96677;;;9.03;84.97
4326;BME280;58429;49.826;10.880;2023-03-14T05:26:23;96675;;;9.01;84.94
4326;BME280;58429;49.826;10.880;2023-03-14T05:27:23;96679;;;9.01;84.93
4326;BME280;58429;49.826;10.880;2023-03-14T05:28:23;96681;;;9.01;84.83
4326;BME280;58429;49.826;10.880;2023-03-14T05:29:23;96680;;;9.01;84.82
4326;BME280;58429;49.826;10.880;2023-03-14T05:30:23;96682;;;9.03;84.82
4326;BME280;58429;49.826;10.880;2023-03-14T05:31:23;96682;;;9.02;84.75
4326;BME280;58429;49.826;10.880;2023-03-14T05:32:23;96678;;;9.03;84.71
4326;BME280;58429;49.826;10.880;2023-03-14T05:33:23;96676;;;9.04;84.63
4326;BME280;58429;49.826;10.880;2023-03-14T05:34:23;96674;;;9.04;84.57
4326;BME280;58429;49.826;10.880;2023-03-14T05:35:23;96674;;;9.01;84.58
4326;BME280;58429;49.826;10.880;2023-03-14T05:36:23;96680;;;9.01;84.55